SAZR/RSA METAR and TAF weather

Enter ICAO airport designator
Station Type Date Time Source
SAZR METAR 2022/12/08 00:25 UTC NOAA

SAZR 080025Z 27003T 9999 SCT050 FEW080CB BKN100 23/21 Q1003


Station Type Date Time Source
SAZR Decoded METAR 2022/12/08 00:25 UTC NOAA

Santa Rosa Aerodrome, Argentina (SAZR) 36-34S 064-16W 191M
Dec 07, 2022 - 07:25 PM EST / 2022.12.08 0025 UTC
Visibility: greater than 7 mile(s):0
Sky conditions: mostly cloudy
Weather: Cumulonimbus clouds observed
Temperature: 73 F (23 C)
Dew Point: 69 F (21 C)
Relative Humidity: 88%
Pressure (altimeter): 29.62 in. Hg (1003 hPa)
ob: SAZR 080025Z 27003T 9999 SCT050 FEW080CB BKN100 23/21 Q1003
cycle: 0

Station Type Date Time Source
SAZR TAF 2022/12/09 12:39 UTC NOAA

TAF SAZR 091100Z 0912/1012 18010KT CAVOK TX32/0919Z TN17/1009Z
TEMPO 0914/0918 VRB05KT 8000 -SHRA SCT040 FEW050TCU
BECMG 0918/0921 09005KT CAVOK
BECMG 1003/1006 VRB04KT

Example: see airport list